sensor_id;sensor_type;location;lat;lon;timestamp;P1;durP1;ratioP1;P2;durP2;ratioP2
33421;SDS011;19763;55.798;37.782;2023-12-20T00:02:21;1.38;;;1.27;;
33421;SDS011;19763;55.798;37.782;2023-12-20T00:04:46;2.15;;;1.40;;
33421;SDS011;19763;55.798;37.782;2023-12-20T00:07:12;2.17;;;1.83;;
33421;SDS011;19763;55.798;37.782;2023-12-20T00:09:38;2.50;;;1.60;;
33421;SDS011;19763;55.798;37.782;2023-12-20T00:12:04;2.97;;;1.50;;
33421;SDS011;19763;55.798;37.782;2023-12-20T00:14:29;2.75;;;1.67;;
33421;SDS011;19763;55.798;37.782;2023-12-20T00:16:55;2.47;;;1.90;;
33421;SDS011;19763;55.798;37.782;2023-12-20T00:19:21;2.80;;;1.60;;
33421;SDS011;19763;55.798;37.782;2023-12-20T00:21:46;2.38;;;1.60;;
33421;SDS011;19763;55.798;37.782;2023-12-20T00:24:12;1.70;;;1.60;;
33421;SDS011;19763;55.798;37.782;2023-12-20T00:26:38;1.75;;;1.60;;
33421;SDS011;19763;55.798;37.782;2023-12-20T00:29:03;2.63;;;1.80;;
33421;SDS011;19763;55.798;37.782;2023-12-20T00:31:29;1.60;;;1.50;;
33421;SDS011;19763;55.798;37.782;2023-12-20T00:33:55;1.50;;;1.40;;
33421;SDS011;19763;55.798;37.782;2023-12-20T00:36:21;1.80;;;1.70;;
33421;SDS011;19763;55.798;37.782;2023-12-20T00:38:47;2.20;;;2.00;;
33421;SDS011;19763;55.798;37.782;2023-12-20T00:41:13;1.83;;;1.73;;
33421;SDS011;19763;55.798;37.782;2023-12-20T00:43:38;2.67;;;1.85;;
33421;SDS011;19763;55.798;37.782;2023-12-20T00:46:04;2.30;;;1.85;;
33421;SDS011;19763;55.798;37.782;2023-12-20T00:48:30;2.53;;;1.70;;
33421;SDS011;19763;55.798;37.782;2023-12-20T00:50:57;3.35;;;1.65;;
33421;SDS011;19763;55.798;37.782;2023-12-20T00:53:23;2.80;;;1.60;;
33421;SDS011;19763;55.798;37.782;2023-12-20T00:55:48;1.92;;;1.58;;
33421;SDS011;19763;55.798;37.782;2023-12-20T00:58:15;1.85;;;1.50;;
33421;SDS011;19763;55.798;37.782;2023-12-20T01:00:41;4.22;;;1.50;;
33421;SDS011;19763;55.798;37.782;2023-12-20T01:03:09;3.10;;;1.70;;
33421;SDS011;19763;55.798;37.782;2023-12-20T01:05:35;3.72;;;1.67;;
33421;SDS011;19763;55.798;37.782;2023-12-20T01:08:00;1.92;;;1.73;;
33421;SDS011;19763;55.798;37.782;2023-12-20T01:10:28;2.70;;;2.03;;
33421;SDS011;19763;55.798;37.782;2023-12-20T01:12:54;2.85;;;2.33;;
33421;SDS011;19763;55.798;37.782;2023-12-20T01:15:20;2.20;;;1.85;;
33421;SDS011;19763;55.798;37.782;2023-12-20T01:17:46;2.42;;;1.90;;
33421;SDS011;19763;55.798;37.782;2023-12-20T01:20:12;2.53;;;1.70;;
33421;SDS011;19763;55.798;37.782;2023-12-20T01:22:38;2.88;;;1.88;;
33421;SDS011;19763;55.798;37.782;2023-12-20T01:25:03;2.60;;;2.15;;
33421;SDS011;19763;55.798;37.782;2023-12-20T01:27:29;2.65;;;1.98;;
33421;SDS011;19763;55.798;37.782;2023-12-20T01:29:56;2.65;;;2.13;;
33421;SDS011;19763;55.798;37.782;2023-12-20T01:32:22;1.98;;;1.77;;
33421;SDS011;19763;55.798;37.782;2023-12-20T01:34:48;2.25;;;1.80;;
33421;SDS011;19763;55.798;37.782;2023-12-20T01:37:14;2.60;;;1.70;;
33421;SDS011;19763;55.798;37.782;2023-12-20T01:39:39;2.95;;;1.95;;
33421;SDS011;19763;55.798;37.782;2023-12-20T01:42:05;2.42;;;1.92;;
33421;SDS011;19763;55.798;37.782;2023-12-20T01:44:31;3.15;;;2.00;;
33421;SDS011;19763;55.798;37.782;2023-12-20T01:46:56;2.35;;;1.98;;
33421;SDS011;19763;55.798;37.782;2023-12-20T01:49:22;2.05;;;1.83;;
33421;SDS011;19763;55.798;37.782;2023-12-20T01:51:49;2.70;;;2.10;;
33421;SDS011;19763;55.798;37.782;2023-12-20T01:54:15;2.92;;;1.88;;
33421;SDS011;19763;55.798;37.782;2023-12-20T01:56:42;2.40;;;2.00;;
33421;SDS011;19763;55.798;37.782;2023-12-20T01:59:08;3.42;;;1.90;;
33421;SDS011;19763;55.798;37.782;2023-12-20T02:01:34;2.17;;;1.92;;
33421;SDS011;19763;55.798;37.782;2023-12-20T02:04:00;4.55;;;1.67;;
33421;SDS011;19763;55.798;37.782;2023-12-20T02:06:29;3.70;;;1.65;;
33421;SDS011;19763;55.798;37.782;2023-12-20T02:08:58;2.60;;;1.98;;
33421;SDS011;19763;55.798;37.782;2023-12-20T02:11:25;3.05;;;1.80;;
33421;SDS011;19763;55.798;37.782;2023-12-20T02:13:51;3.63;;;1.75;;
33421;SDS011;19763;55.798;37.782;2023-12-20T02:16:19;1.67;;;1.50;;
33421;SDS011;19763;55.798;37.782;2023-12-20T02:18:45;2.40;;;1.40;;
33421;SDS011;19763;55.798;37.782;2023-12-20T02:21:10;3.28;;;1.50;;
33421;SDS011;19763;55.798;37.782;2023-12-20T02:23:36;3.70;;;1.95;;
33421;SDS011;19763;55.798;37.782;2023-12-20T02:26:02;1.73;;;1.45;;
33421;SDS011;19763;55.798;37.782;2023-12-20T02:28:29;4.13;;;1.50;;
33421;SDS011;19763;55.798;37.782;2023-12-20T02:30:56;2.33;;;1.50;;
33421;SDS011;19763;55.798;37.782;2023-12-20T02:33:22;4.13;;;1.52;;
33421;SDS011;19763;55.798;37.782;2023-12-20T02:35:48;3.00;;;1.23;;
33421;SDS011;19763;55.798;37.782;2023-12-20T02:38:14;1.70;;;1.58;;
33421;SDS011;19763;55.798;37.782;2023-12-20T02:40:39;4.28;;;1.50;;
33421;SDS011;19763;55.798;37.782;2023-12-20T02:43:05;1.75;;;1.50;;
33421;SDS011;19763;55.798;37.782;2023-12-20T02:45:31;4.93;;;1.85;;
33421;SDS011;19763;55.798;37.782;2023-12-20T02:47:56;3.67;;;1.33;;
33421;SDS011;19763;55.798;37.782;2023-12-20T02:50:22;3.58;;;1.20;;
33421;SDS011;19763;55.798;37.782;2023-12-20T02:52:48;2.50;;;1.55;;
33421;SDS011;19763;55.798;37.782;2023-12-20T02:55:13;5.32;;;1.33;;
33421;SDS011;19763;55.798;37.782;2023-12-20T02:57:39;3.33;;;1.20;;
33421;SDS011;19763;55.798;37.782;2023-12-20T03:00:08;1.75;;;1.05;;
33421;SDS011;19763;55.798;37.782;2023-12-20T03:02:35;1.77;;;1.20;;
33421;SDS011;19763;55.798;37.782;2023-12-20T03:05:02;2.40;;;1.20;;
33421;SDS011;19763;55.798;37.782;2023-12-20T03:07:30;1.23;;;1.13;;
33421;SDS011;19763;55.798;37.782;2023-12-20T03:09:55;2.17;;;1.17;;
33421;SDS011;19763;55.798;37.782;2023-12-20T03:12:21;3.50;;;1.52;;
33421;SDS011;19763;55.798;37.782;2023-12-20T03:14:47;2.58;;;1.83;;
33421;SDS011;19763;55.798;37.782;2023-12-20T03:17:13;3.10;;;1.80;;
33421;SDS011;19763;55.798;37.782;2023-12-20T03:19:39;2.22;;;1.60;;
33421;SDS011;19763;55.798;37.782;2023-12-20T03:22:05;3.80;;;1.80;;
33421;SDS011;19763;55.798;37.782;2023-12-20T03:24:30;2.38;;;2.00;;
33421;SDS011;19763;55.798;37.782;2023-12-20T03:26:56;4.47;;;2.35;;
33421;SDS011;19763;55.798;37.782;2023-12-20T03:29:21;3.08;;;2.17;;
33421;SDS011;19763;55.798;37.782;2023-12-20T03:31:47;2.47;;;2.15;;
33421;SDS011;19763;55.798;37.782;2023-12-20T03:34:13;4.43;;;2.58;;
33421;SDS011;19763;55.798;37.782;2023-12-20T03:36:38;5.03;;;2.30;;
33421;SDS011;19763;55.798;37.782;2023-12-20T03:39:05;3.30;;;2.20;;
33421;SDS011;19763;55.798;37.782;2023-12-20T03:41:31;3.58;;;2.20;;
33421;SDS011;19763;55.798;37.782;2023-12-20T03:43:56;3.03;;;2.50;;
33421;SDS011;19763;55.798;37.782;2023-12-20T03:46:22;4.47;;;2.78;;
33421;SDS011;19763;55.798;37.782;2023-12-20T03:48:48;3.78;;;2.80;;
33421;SDS011;19763;55.798;37.782;2023-12-20T03:51:13;4.00;;;2.38;;
33421;SDS011;19763;55.798;37.782;2023-12-20T03:53:39;2.97;;;2.63;;
33421;SDS011;19763;55.798;37.782;2023-12-20T03:56:06;5.18;;;2.95;;
33421;SDS011;19763;55.798;37.782;2023-12-20T03:58:31;3.72;;;3.13;;
33421;SDS011;19763;55.798;37.782;2023-12-20T04:00:57;3.75;;;2.67;;
33421;SDS011;19763;55.798;37.782;2023-12-20T04:03:23;4.20;;;3.17;;
33421;SDS011;19763;55.798;37.782;2023-12-20T04:05:48;3.15;;;2.85;;
33421;SDS011;19763;55.798;37.782;2023-12-20T04:08:14;4.57;;;2.90;;
33421;SDS011;19763;55.798;37.782;2023-12-20T04:10:40;3.50;;;3.20;;
33421;SDS011;19763;55.798;37.782;2023-12-20T04:13:05;4.65;;;3.10;;
33421;SDS011;19763;55.798;37.782;2023-12-20T04:15:31;4.72;;;3.20;;
33421;SDS011;19763;55.798;37.782;2023-12-20T04:17:57;3.40;;;2.88;;
33421;SDS011;19763;55.798;37.782;2023-12-20T04:20:22;5.78;;;3.35;;
33421;SDS011;19763;55.798;37.782;2023-12-20T04:22:48;6.38;;;3.25;;
33421;SDS011;19763;55.798;37.782;2023-12-20T04:25:14;4.70;;;3.55;;
33421;SDS011;19763;55.798;37.782;2023-12-20T04:27:39;4.25;;;3.60;;
33421;SDS011;19763;55.798;37.782;2023-12-20T04:30:05;5.57;;;3.88;;
33421;SDS011;19763;55.798;37.782;2023-12-20T04:32:32;5.57;;;4.47;;
33421;SDS011;19763;55.798;37.782;2023-12-20T04:34:58;8.77;;;4.40;;
33421;SDS011;19763;55.798;37.782;2023-12-20T04:37:24;6.68;;;4.50;;
33421;SDS011;19763;55.798;37.782;2023-12-20T04:39:50;8.38;;;4.20;;
33421;SDS011;19763;55.798;37.782;2023-12-20T04:42:16;8.45;;;4.72;;
33421;SDS011;19763;55.798;37.782;2023-12-20T04:44:42;6.57;;;5.00;;
33421;SDS011;19763;55.798;37.782;2023-12-20T04:47:09;6.47;;;4.85;;
33421;SDS011;19763;55.798;37.782;2023-12-20T04:49:35;7.25;;;4.60;;
33421;SDS011;19763;55.798;37.782;2023-12-20T04:52:00;6.70;;;4.50;;
33421;SDS011;19763;55.798;37.782;2023-12-20T04:54:26;6.15;;;3.67;;
33421;SDS011;19763;55.798;37.782;2023-12-20T04:56:51;6.15;;;4.40;;
33421;SDS011;19763;55.798;37.782;2023-12-20T04:59:17;6.03;;;4.20;;
33421;SDS011;19763;55.798;37.782;2023-12-20T05:01:43;4.32;;;3.92;;
33421;SDS011;19763;55.798;37.782;2023-12-20T05:04:09;6.90;;;4.20;;
33421;SDS011;19763;55.798;37.782;2023-12-20T05:06:34;7.60;;;4.13;;
33421;SDS011;19763;55.798;37.782;2023-12-20T05:09:00;6.25;;;4.47;;
33421;SDS011;19763;55.798;37.782;2023-12-20T05:11:26;4.10;;;3.60;;
33421;SDS011;19763;55.798;37.782;2023-12-20T05:13:51;3.97;;;3.40;;
33421;SDS011;19763;55.798;37.782;2023-12-20T05:16:17;6.80;;;4.07;;
33421;SDS011;19763;55.798;37.782;2023-12-20T05:18:47;5.50;;;3.80;;
33421;SDS011;19763;55.798;37.782;2023-12-20T05:21:14;7.13;;;4.72;;
33421;SDS011;19763;55.798;37.782;2023-12-20T05:23:40;6.95;;;3.75;;
33421;SDS011;19763;55.798;37.782;2023-12-20T05:26:06;5.10;;;3.90;;
33421;SDS011;19763;55.798;37.782;2023-12-20T05:28:32;4.28;;;3.50;;
33421;SDS011;19763;55.798;37.782;2023-12-20T05:30:57;6.57;;;3.63;;
33421;SDS011;19763;55.798;37.782;2023-12-20T05:33:23;3.63;;;3.00;;
33421;SDS011;19763;55.798;37.782;2023-12-20T05:35:50;7.32;;;3.80;;
33421;SDS011;19763;55.798;37.782;2023-12-20T05:38:15;3.95;;;3.38;;
33421;SDS011;19763;55.798;37.782;2023-12-20T05:40:42;4.43;;;3.20;;
33421;SDS011;19763;55.798;37.782;2023-12-20T05:43:07;4.82;;;3.22;;
33421;SDS011;19763;55.798;37.782;2023-12-20T05:45:33;6.85;;;3.40;;
33421;SDS011;19763;55.798;37.782;2023-12-20T05:47:59;6.05;;;3.42;;
33421;SDS011;19763;55.798;37.782;2023-12-20T05:50:25;9.23;;;3.88;;
33421;SDS011;19763;55.798;37.782;2023-12-20T05:52:51;5.30;;;3.78;;
33421;SDS011;19763;55.798;37.782;2023-12-20T05:55:16;6.80;;;3.65;;
33421;SDS011;19763;55.798;37.782;2023-12-20T05:57:42;8.18;;;5.18;;
33421;SDS011;19763;55.798;37.782;2023-12-20T06:00:08;9.30;;;5.88;;
33421;SDS011;19763;55.798;37.782;2023-12-20T06:02:35;7.55;;;4.47;;
33421;SDS011;19763;55.798;37.782;2023-12-20T06:05:02;7.55;;;5.43;;
33421;SDS011;19763;55.798;37.782;2023-12-20T06:07:30;5.30;;;4.03;;
33421;SDS011;19763;55.798;37.782;2023-12-20T06:09:56;6.70;;;3.83;;
33421;SDS011;19763;55.798;37.782;2023-12-20T06:12:21;7.50;;;4.00;;
33421;SDS011;19763;55.798;37.782;2023-12-20T06:14:47;7.28;;;3.97;;
33421;SDS011;19763;55.798;37.782;2023-12-20T06:17:16;6.85;;;4.00;;
33421;SDS011;19763;55.798;37.782;2023-12-20T06:19:41;5.50;;;3.65;;
33421;SDS011;19763;55.798;37.782;2023-12-20T06:22:10;8.48;;;4.28;;
33421;SDS011;19763;55.798;37.782;2023-12-20T06:24:36;7.65;;;3.78;;
33421;SDS011;19763;55.798;37.782;2023-12-20T06:27:01;5.15;;;4.10;;
33421;SDS011;19763;55.798;37.782;2023-12-20T06:29:27;6.78;;;4.32;;
33421;SDS011;19763;55.798;37.782;2023-12-20T06:31:53;5.63;;;4.22;;
33421;SDS011;19763;55.798;37.782;2023-12-20T06:34:19;7.25;;;4.15;;
33421;SDS011;19763;55.798;37.782;2023-12-20T06:36:44;4.95;;;3.90;;
33421;SDS011;19763;55.798;37.782;2023-12-20T06:39:10;6.35;;;4.63;;
33421;SDS011;19763;55.798;37.782;2023-12-20T06:41:38;7.13;;;4.20;;
33421;SDS011;19763;55.798;37.782;2023-12-20T06:44:04;8.45;;;4.38;;
33421;SDS011;19763;55.798;37.782;2023-12-20T06:46:29;6.72;;;4.32;;
33421;SDS011;19763;55.798;37.782;2023-12-20T06:48:55;7.38;;;4.38;;
33421;SDS011;19763;55.798;37.782;2023-12-20T06:51:21;6.97;;;4.53;;
33421;SDS011;19763;55.798;37.782;2023-12-20T06:53:50;7.22;;;4.68;;
33421;SDS011;19763;55.798;37.782;2023-12-20T06:56:17;7.82;;;4.28;;
33421;SDS011;19763;55.798;37.782;2023-12-20T06:58:43;5.55;;;4.00;;
33421;SDS011;19763;55.798;37.782;2023-12-20T07:01:12;6.90;;;3.60;;
33421;SDS011;19763;55.798;37.782;2023-12-20T07:03:42;5.38;;;3.80;;
33421;SDS011;19763;55.798;37.782;2023-12-20T07:06:08;7.97;;;4.03;;
33421;SDS011;19763;55.798;37.782;2023-12-20T07:08:34;7.63;;;4.00;;
33421;SDS011;19763;55.798;37.782;2023-12-20T07:11:00;4.90;;;3.55;;
33421;SDS011;19763;55.798;37.782;2023-12-20T07:13:25;5.00;;;3.35;;
33421;SDS011;19763;55.798;37.782;2023-12-20T07:15:51;5.28;;;3.10;;
33421;SDS011;19763;55.798;37.782;2023-12-20T07:18:17;6.75;;;3.70;;
33421;SDS011;19763;55.798;37.782;2023-12-20T07:20:42;8.40;;;3.58;;
33421;SDS011;19763;55.798;37.782;2023-12-20T07:23:08;5.18;;;3.28;;
33421;SDS011;19763;55.798;37.782;2023-12-20T07:25:34;5.88;;;3.20;;
33421;SDS011;19763;55.798;37.782;2023-12-20T07:28:00;4.82;;;3.10;;
33421;SDS011;19763;55.798;37.782;2023-12-20T07:30:26;6.72;;;3.30;;
33421;SDS011;19763;55.798;37.782;2023-12-20T07:32:52;4.30;;;3.03;;
33421;SDS011;19763;55.798;37.782;2023-12-20T07:35:18;4.50;;;3.05;;
33421;SDS011;19763;55.798;37.782;2023-12-20T07:37:43;7.53;;;3.42;;
33421;SDS011;19763;55.798;37.782;2023-12-20T07:40:09;5.82;;;2.88;;
33421;SDS011;19763;55.798;37.782;2023-12-20T07:42:35;4.05;;;3.30;;
33421;SDS011;19763;55.798;37.782;2023-12-20T07:45:01;4.82;;;2.55;;
33421;SDS011;19763;55.798;37.782;2023-12-20T07:47:30;5.35;;;3.10;;
33421;SDS011;19763;55.798;37.782;2023-12-20T07:49:56;4.78;;;2.78;;
33421;SDS011;19763;55.798;37.782;2023-12-20T07:52:22;4.93;;;2.90;;
33421;SDS011;19763;55.798;37.782;2023-12-20T07:54:48;6.60;;;4.13;;
33421;SDS011;19763;55.798;37.782;2023-12-20T07:57:14;5.72;;;2.97;;
33421;SDS011;19763;55.798;37.782;2023-12-20T07:59:40;3.95;;;2.90;;
33421;SDS011;19763;55.798;37.782;2023-12-20T08:02:05;7.75;;;2.88;;
33421;SDS011;19763;55.798;37.782;2023-12-20T08:04:32;7.10;;;3.08;;
33421;SDS011;19763;55.798;37.782;2023-12-20T08:06:58;7.47;;;2.80;;
33421;SDS011;19763;55.798;37.782;2023-12-20T08:09:23;4.25;;;3.00;;
33421;SDS011;19763;55.798;37.782;2023-12-20T08:11:49;3.33;;;2.80;;
33421;SDS011;19763;55.798;37.782;2023-12-20T08:14:15;6.13;;;3.08;;
33421;SDS011;19763;55.798;37.782;2023-12-20T08:16:41;3.75;;;2.72;;
33421;SDS011;19763;55.798;37.782;2023-12-20T08:19:07;3.88;;;2.45;;
33421;SDS011;19763;55.798;37.782;2023-12-20T08:21:33;4.93;;;2.45;;
33421;SDS011;19763;55.798;37.782;2023-12-20T08:23:59;4.80;;;2.58;;
33421;SDS011;19763;55.798;37.782;2023-12-20T08:26:26;4.78;;;2.72;;
33421;SDS011;19763;55.798;37.782;2023-12-20T08:28:52;4.78;;;2.50;;
33421;SDS011;19763;55.798;37.782;2023-12-20T08:31:18;3.67;;;2.72;;
33421;SDS011;19763;55.798;37.782;2023-12-20T08:33:44;4.75;;;2.63;;
33421;SDS011;19763;55.798;37.782;2023-12-20T08:36:11;5.35;;;2.80;;
33421;SDS011;19763;55.798;37.782;2023-12-20T08:38:37;4.63;;;3.00;;
33421;SDS011;19763;55.798;37.782;2023-12-20T08:41:03;7.60;;;2.90;;
33421;SDS011;19763;55.798;37.782;2023-12-20T08:43:36;5.25;;;2.47;;
33421;SDS011;19763;55.798;37.782;2023-12-20T08:46:02;4.50;;;3.03;;
33421;SDS011;19763;55.798;37.782;2023-12-20T08:48:28;5.47;;;2.38;;
33421;SDS011;19763;55.798;37.782;2023-12-20T08:50:54;3.78;;;2.58;;
33421;SDS011;19763;55.798;37.782;2023-12-20T08:53:20;4.65;;;2.50;;
33421;SDS011;19763;55.798;37.782;2023-12-20T08:55:46;3.35;;;2.42;;
33421;SDS011;19763;55.798;37.782;2023-12-20T08:58:12;3.92;;;2.53;;
33421;SDS011;19763;55.798;37.782;2023-12-20T09:00:38;5.15;;;3.22;;
33421;SDS011;19763;55.798;37.782;2023-12-20T09:03:04;4.80;;;2.75;;
33421;SDS011;19763;55.798;37.782;2023-12-20T09:05:30;6.18;;;3.20;;
33421;SDS011;19763;55.798;37.782;2023-12-20T09:07:56;5.57;;;3.00;;
33421;SDS011;19763;55.798;37.782;2023-12-20T09:10:22;6.20;;;3.30;;
33421;SDS011;19763;55.798;37.782;2023-12-20T09:12:51;5.15;;;3.00;;
33421;SDS011;19763;55.798;37.782;2023-12-20T09:15:25;6.95;;;3.63;;
33421;SDS011;19763;55.798;37.782;2023-12-20T09:17:52;8.43;;;3.78;;
33421;SDS011;19763;55.798;37.782;2023-12-20T09:20:19;3.33;;;3.03;;
33421;SDS011;19763;55.798;37.782;2023-12-20T09:22:45;11.15;;;3.50;;
33421;SDS011;19763;55.798;37.782;2023-12-20T09:25:10;4.38;;;3.10;;
33421;SDS011;19763;55.798;37.782;2023-12-20T09:27:38;5.22;;;3.58;;
33421;SDS011;19763;55.798;37.782;2023-12-20T09:30:04;5.90;;;3.22;;
33421;SDS011;19763;55.798;37.782;2023-12-20T09:32:33;5.53;;;3.72;;
33421;SDS011;19763;55.798;37.782;2023-12-20T09:34:59;3.97;;;3.17;;
33421;SDS011;19763;55.798;37.782;2023-12-20T09:37:26;3.70;;;3.30;;
33421;SDS011;19763;55.798;37.782;2023-12-20T09:39:52;3.33;;;3.03;;
33421;SDS011;19763;55.798;37.782;2023-12-20T09:42:21;4.22;;;3.20;;
33421;SDS011;19763;55.798;37.782;2023-12-20T09:44:54;5.60;;;3.00;;
33421;SDS011;19763;55.798;37.782;2023-12-20T09:47:23;4.18;;;3.47;;
33421;SDS011;19763;55.798;37.782;2023-12-20T09:49:50;3.35;;;3.05;;
33421;SDS011;19763;55.798;37.782;2023-12-20T09:52:17;5.90;;;2.88;;
33421;SDS011;19763;55.798;37.782;2023-12-20T09:54:44;4.38;;;2.78;;
33421;SDS011;19763;55.798;37.782;2023-12-20T09:57:12;7.03;;;3.17;;
33421;SDS011;19763;55.798;37.782;2023-12-20T09:59:38;3.40;;;2.85;;
33421;SDS011;19763;55.798;37.782;2023-12-20T10:02:04;3.17;;;2.88;;
33421;SDS011;19763;55.798;37.782;2023-12-20T10:04:38;4.53;;;3.30;;
33421;SDS011;19763;55.798;37.782;2023-12-20T10:07:11;3.38;;;2.88;;
33421;SDS011;19763;55.798;37.782;2023-12-20T10:09:36;4.25;;;3.20;;
33421;SDS011;19763;55.798;37.782;2023-12-20T10:12:03;3.47;;;3.00;;
33421;SDS011;19763;55.798;37.782;2023-12-20T10:14:30;3.95;;;3.00;;
33421;SDS011;19763;55.798;37.782;2023-12-20T10:17:01;3.58;;;2.90;;
33421;SDS011;19763;55.798;37.782;2023-12-20T10:19:28;3.90;;;3.03;;
33421;SDS011;19763;55.798;37.782;2023-12-20T10:21:54;3.85;;;3.40;;
33421;SDS011;19763;55.798;37.782;2023-12-20T10:24:20;4.00;;;2.72;;
33421;SDS011;19763;55.798;37.782;2023-12-20T10:26:46;3.78;;;2.97;;
33421;SDS011;19763;55.798;37.782;2023-12-20T10:29:12;4.20;;;3.63;;
33421;SDS011;19763;55.798;37.782;2023-12-20T10:31:37;3.95;;;2.70;;
33421;SDS011;19763;55.798;37.782;2023-12-20T10:34:07;4.55;;;3.00;;
33421;SDS011;19763;55.798;37.782;2023-12-20T10:36:33;3.08;;;2.80;;
33421;SDS011;19763;55.798;37.782;2023-12-20T10:38:59;3.40;;;3.10;;
33421;SDS011;19763;55.798;37.782;2023-12-20T10:41:27;3.90;;;2.97;;
33421;SDS011;19763;55.798;37.782;2023-12-20T10:46:33;3.75;;;3.00;;
33421;SDS011;19763;55.798;37.782;2023-12-20T10:49:03;3.58;;;2.80;;
33421;SDS011;19763;55.798;37.782;2023-12-20T10:51:31;2.67;;;2.35;;
33421;SDS011;19763;55.798;37.782;2023-12-20T10:53:57;3.13;;;2.70;;
33421;SDS011;19763;55.798;37.782;2023-12-20T10:56:23;4.32;;;2.67;;
33421;SDS011;19763;55.798;37.782;2023-12-20T10:58:49;3.90;;;2.63;;
33421;SDS011;19763;55.798;37.782;2023-12-20T11:01:16;2.50;;;2.30;;
33421;SDS011;19763;55.798;37.782;2023-12-20T11:03:51;2.75;;;2.55;;
33421;SDS011;19763;55.798;37.782;2023-12-20T11:08:52;4.63;;;3.15;;
33421;SDS011;19763;55.798;37.782;2023-12-20T11:14:07;5.80;;;3.28;;
33421;SDS011;19763;55.798;37.782;2023-12-20T11:16:37;3.03;;;2.37;;
33421;SDS011;19763;55.798;37.782;2023-12-20T11:19:06;3.55;;;2.65;;
33421;SDS011;19763;55.798;37.782;2023-12-20T11:21:32;4.28;;;2.42;;
33421;SDS011;19763;55.798;37.782;2023-12-20T11:23:59;3.67;;;2.60;;
33421;SDS011;19763;55.798;37.782;2023-12-20T11:26:28;3.33;;;2.53;;
33421;SDS011;19763;55.798;37.782;2023-12-20T11:29:12;5.25;;;2.67;;
33421;SDS011;19763;55.798;37.782;2023-12-20T11:32:03;2.50;;;2.30;;
33421;SDS011;19763;55.798;37.782;2023-12-20T11:35:00;4.05;;;2.20;;
33421;SDS011;19763;55.798;37.782;2023-12-20T11:37:31;4.00;;;2.35;;
33421;SDS011;19763;55.798;37.782;2023-12-20T11:40:01;2.22;;;2.03;;
33421;SDS011;19763;55.798;37.782;2023-12-20T11:42:33;2.20;;;2.00;;
33421;SDS011;19763;55.798;37.782;2023-12-20T11:45:03;3.63;;;2.20;;
33421;SDS011;19763;55.798;37.782;2023-12-20T11:47:30;5.88;;;2.70;;
33421;SDS011;19763;55.798;37.782;2023-12-20T11:49:57;6.45;;;2.78;;
33421;SDS011;19763;55.798;37.782;2023-12-20T11:52:22;3.65;;;2.28;;
33421;SDS011;19763;55.798;37.782;2023-12-20T11:54:48;4.93;;;2.65;;
33421;SDS011;19763;55.798;37.782;2023-12-20T11:57:14;2.70;;;2.50;;
33421;SDS011;19763;55.798;37.782;2023-12-20T11:59:39;3.90;;;2.60;;
33421;SDS011;19763;55.798;37.782;2023-12-20T12:02:05;2.65;;;2.33;;
33421;SDS011;19763;55.798;37.782;2023-12-20T12:04:31;3.20;;;2.20;;
33421;SDS011;19763;55.798;37.782;2023-12-20T12:06:57;4.63;;;2.67;;
33421;SDS011;19763;55.798;37.782;2023-12-20T12:09:22;2.65;;;2.30;;
33421;SDS011;19763;55.798;37.782;2023-12-20T12:11:48;3.13;;;2.20;;
33421;SDS011;19763;55.798;37.782;2023-12-20T12:14:14;4.75;;;2.33;;
33421;SDS011;19763;55.798;37.782;2023-12-20T12:16:41;5.28;;;2.13;;
33421;SDS011;19763;55.798;37.782;2023-12-20T12:19:19;3.10;;;2.20;;
33421;SDS011;19763;55.798;37.782;2023-12-20T12:21:46;3.38;;;2.20;;
33421;SDS011;19763;55.798;37.782;2023-12-20T12:24:11;3.17;;;2.10;;
33421;SDS011;19763;55.798;37.782;2023-12-20T12:26:37;2.88;;;2.10;;
33421;SDS011;19763;55.798;37.782;2023-12-20T12:29:03;4.32;;;2.40;;
33421;SDS011;19763;55.798;37.782;2023-12-20T12:31:32;2.42;;;2.00;;
33421;SDS011;19763;55.798;37.782;2023-12-20T12:33:57;3.97;;;2.40;;
33421;SDS011;19763;55.798;37.782;2023-12-20T12:36:23;2.95;;;2.20;;
33421;SDS011;19763;55.798;37.782;2023-12-20T12:38:49;3.13;;;2.50;;
33421;SDS011;19763;55.798;37.782;2023-12-20T12:41:15;3.17;;;2.15;;
33421;SDS011;19763;55.798;37.782;2023-12-20T12:43:41;3.55;;;2.42;;
33421;SDS011;19763;55.798;37.782;2023-12-20T12:46:07;1.92;;;1.80;;
33421;SDS011;19763;55.798;37.782;2023-12-20T12:48:33;5.25;;;2.40;;
33421;SDS011;19763;55.798;37.782;2023-12-20T12:50:59;3.97;;;2.42;;
33421;SDS011;19763;55.798;37.782;2023-12-20T12:53:25;3.35;;;2.22;;
33421;SDS011;19763;55.798;37.782;2023-12-20T12:55:52;3.05;;;2.47;;
33421;SDS011;19763;55.798;37.782;2023-12-20T12:58:19;3.78;;;2.30;;
33421;SDS011;19763;55.798;37.782;2023-12-20T13:00:45;3.00;;;2.58;;
33421;SDS011;19763;55.798;37.782;2023-12-20T13:03:11;6.35;;;4.15;;
33421;SDS011;19763;55.798;37.782;2023-12-20T13:05:37;4.10;;;2.88;;
33421;SDS011;19763;55.798;37.782;2023-12-20T13:08:03;4.03;;;2.78;;
33421;SDS011;19763;55.798;37.782;2023-12-20T13:10:29;6.53;;;3.20;;
33421;SDS011;19763;55.798;37.782;2023-12-20T13:12:55;4.80;;;2.83;;
33421;SDS011;19763;55.798;37.782;2023-12-20T13:15:21;4.70;;;3.15;;
33421;SDS011;19763;55.798;37.782;2023-12-20T13:17:46;4.68;;;2.95;;
33421;SDS011;19763;55.798;37.782;2023-12-20T13:20:12;3.63;;;2.80;;
33421;SDS011;19763;55.798;37.782;2023-12-20T13:22:38;6.07;;;3.63;;
33421;SDS011;19763;55.798;37.782;2023-12-20T13:25:03;5.38;;;3.30;;
33421;SDS011;19763;55.798;37.782;2023-12-20T13:27:30;6.47;;;3.55;;
33421;SDS011;19763;55.798;37.782;2023-12-20T13:29:55;6.07;;;3.40;;
33421;SDS011;19763;55.798;37.782;2023-12-20T13:32:21;5.10;;;3.50;;
33421;SDS011;19763;55.798;37.782;2023-12-20T13:34:47;5.75;;;3.80;;
33421;SDS011;19763;55.798;37.782;2023-12-20T13:37:13;6.10;;;3.72;;
33421;SDS011;19763;55.798;37.782;2023-12-20T13:39:39;5.07;;;3.72;;
33421;SDS011;19763;55.798;37.782;2023-12-20T13:42:06;5.03;;;3.85;;
33421;SDS011;19763;55.798;37.782;2023-12-20T13:44:32;5.38;;;3.88;;
33421;SDS011;19763;55.798;37.782;2023-12-20T13:46:57;6.25;;;3.85;;
33421;SDS011;19763;55.798;37.782;2023-12-20T13:49:23;4.68;;;3.60;;
33421;SDS011;19763;55.798;37.782;2023-12-20T13:51:51;4.40;;;3.10;;
33421;SDS011;19763;55.798;37.782;2023-12-20T13:54:16;6.03;;;3.65;;
33421;SDS011;19763;55.798;37.782;2023-12-20T13:56:45;5.22;;;3.42;;
33421;SDS011;19763;55.798;37.782;2023-12-20T13:59:11;5.18;;;3.35;;
33421;SDS011;19763;55.798;37.782;2023-12-20T14:01:38;6.25;;;3.35;;
33421;SDS011;19763;55.798;37.782;2023-12-20T14:04:03;6.80;;;3.55;;
33421;SDS011;19763;55.798;37.782;2023-12-20T14:06:29;5.10;;;3.38;;
33421;SDS011;19763;55.798;37.782;2023-12-20T14:08:55;5.90;;;3.53;;
33421;SDS011;19763;55.798;37.782;2023-12-20T14:11:20;5.18;;;3.42;;
33421;SDS011;19763;55.798;37.782;2023-12-20T14:13:46;5.70;;;3.10;;
33421;SDS011;19763;55.798;37.782;2023-12-20T14:16:12;5.18;;;3.30;;
33421;SDS011;19763;55.798;37.782;2023-12-20T14:18:38;7.03;;;3.00;;
33421;SDS011;19763;55.798;37.782;2023-12-20T14:21:05;7.60;;;3.75;;
33421;SDS011;19763;55.798;37.782;2023-12-20T14:23:32;3.50;;;2.72;;
33421;SDS011;19763;55.798;37.782;2023-12-20T14:25:59;5.18;;;2.95;;
33421;SDS011;19763;55.798;37.782;2023-12-20T14:28:25;3.55;;;3.13;;
33421;SDS011;19763;55.798;37.782;2023-12-20T14:30:51;5.30;;;2.60;;
33421;SDS011;19763;55.798;37.782;2023-12-20T14:33:16;3.88;;;3.03;;
33421;SDS011;19763;55.798;37.782;2023-12-20T14:35:42;3.75;;;3.00;;
33421;SDS011;19763;55.798;37.782;2023-12-20T14:38:09;4.28;;;3.10;;